Quantum Of The Seas — C6BH8 — position and weather

sailwx.info

Track history (hours):
 
Tides and Currents Weather Stations Pressure Air Temp Water Temp Dewpoint Dewpoint Depression Visibility Wind Speed Wind Dir Waves Ship Positions

Quantum Of The Seas

Last reported at 2018-May-26 05:00 UTC. Time now 2018-May-26 09:40 UTC.
Position N 31°24' E 121°30'.

Length 348 m; draft 9 m.

Type: Passenger vessel. MMSI: 311000267.

Wind from 360 at 12 knots

Barometer 1008.1 mb
Air temperature 20.7 ° C
Visibility: greater than 2.2 NM
Water temperature 23.9 ° C

Date/timePositionNaut miles runAvg speedWind from/ knotsBaromVisibWave heightAir tempDewpointWater temp
2018-May-26 05:00N 31°24' E 121°30'1 0.1 360 / 121008.1 2.2 20.7 23.9
2018-May-25 22:37N 31°25' E 121°30'0 0.9
2018-May-25 22:24N 31°25' E 121°30'4 7.7
2018-May-25 21:54N 31°23' E 121°34'1812.4
2018-May-25 20:29N 31°16' E 121°53'712.9
2018-May-25 19:56N 31°15' E 122°01'1010.3
2018-May-25 19:00N 31°06' E 122°06'23713.1 270 / 101003.1 2.2 21.3
2018-May-25 01:00N 31°24' E 126°42'225 5.0 150 / 71008.9 5.4 19.015.719.0
2018-May-23 04:00N 33°36' E 130°18'197 9.4 310 / 61005.110.8 21.0 20.0
2018-May-22 07:00N 32°30' E 126°36'4314.3 120 / 181009.9 5.4 19.015.719.0
2018-May-22 04:00N 32°06' E 125°54'2110.6 110 / 191011.9 5.4 19.015.720.0
2018-May-22 02:00N 32°00' E 125°30'4210.6 100 / 121007.9 5.4 23.019.920.0
2018-May-21 22:00N 31°48' E 124°42'12913.0 110 / 241013.110.8 16.7 18.3
2018-May-21 12:05N 31°06' E 122°19'313.8
2018-May-21 11:53N 31°07' E 122°16'613.3
2018-May-21 11:28N 31°10' E 122°11'613.2
2018-May-21 11:00N 31°14' E 122°05'813.3
2018-May-21 10:23N 31°15' E 121°56'23 1.8
2018-May-20 21:00N 31°24' E 121°30'15 5.7 070 / 161013.1 2.2 17.5 23.8
2018-May-20 18:25N 31°18' E 121°46'612.1
2018-May-20 17:55N 31°16' E 121°53'512.8
2018-May-20 17:30N 31°15' E 121°59'714.5
2018-May-20 17:00N 31°13' E 122°07'510.1
2018-May-20 16:29N 31°10' E 122°12'612.4
2018-May-20 16:00N 31°07' E 122°18'24215.1
2018-May-20 00:00N 31°30' E 127°00'3617.9 080 / 221007.9 5.4 23.019.923.0
2018-May-19 22:00N 31°30' E 127°42'155 7.7 090 / 191012.110.8 19.9 20.4
2018-May-19 02:00N 32°30' E 130°30'0 0.0 350 / 201011.110.8 19.5 22.4
2018-May-19 01:00N 32°30' E 130°30'42611.6 010 / 251011.0 5.4 23.014.622.0
2018-May-17 12:23N 31°06' E 122°19'614.7
2018-May-17 12:00N 31°09' E 122°13'612.2
2018-May-17 11:30N 31°13' E 122°08'510.7
2018-May-17 11:00N 31°14' E 122°02'612.1
2018-May-17 10:30N 31°16' E 121°55'612.5
2018-May-17 10:00N 31°18' E 121°48'16 3.3
2018-May-17 05:00N 31°24' E 121°30'0 0.0 1003.1 2.2 34.7 24.7
2018-May-17 02:00N 31°24' E 121°30'1 0.3 320 / 131004.1 2.2
2018-May-16 22:38N 31°25' E 121°30'1 5.9
2018-May-16 22:26N 31°25' E 121°32'1311.2
2018-May-16 21:15N 31°19' E 121°45'7 8.1
2018-May-16 20:25N 31°16' E 121°53'4 9.3
2018-May-16 19:59N 31°15' E 121°57'4 9.2
2018-May-16 19:30N 31°14' E 122°02'610.7
2018-May-16 18:57N 31°12' E 122°09'713.0
2018-May-16 18:26N 31°08' E 122°15'7 9.0
2018-May-16 17:41N 31°07' E 122°23'511.4
2018-May-16 17:15N 31°07' E 122°28'3814.5
2018-May-16 14:39N 31°12' E 123°12'514.5
2018-May-16 14:17N 31°13' E 123°18'414.1
2018-May-16 14:00N 31°15' E 123°22'  
Track history (hours):
 
Tides and Currents Weather Stations Pressure Air Temp Water Temp Dewpoint Dewpoint Depression Visibility Wind Speed Wind Dir Waves Ship Positions

Quantum Of The Seas

Last reported at 2018-May-26 05:00 UTC. Time now 2018-May-26 09:40 UTC.
Position N 31°24' E 121°30'.

Length 348 m; draft 9 m.

Type: Passenger vessel. MMSI: 311000267.

Wind from 360 at 12 knots

Barometer 1008.1 mb
Air temperature 20.7 ° C
Visibility: greater than 2.2 NM
Water temperature 23.9 ° C

Date/timePositionNaut miles runAvg speedWind from/ knotsBaromVisibWave heightAir tempDewpointWater temp
2018-May-26 05:00N 31°24' E 121°30'1 0.1 360 / 121008.1 2.2 20.7 23.9
2018-May-25 22:37N 31°25' E 121°30'0 0.9
2018-May-25 22:24N 31°25' E 121°30'4 7.7
2018-May-25 21:54N 31°23' E 121°34'1812.4
2018-May-25 20:29N 31°16' E 121°53'712.9
2018-May-25 19:56N 31°15' E 122°01'1010.3
2018-May-25 19:00N 31°06' E 122°06'23713.1 270 / 101003.1 2.2 21.3
2018-May-25 01:00N 31°24' E 126°42'225 5.0 150 / 71008.9 5.4 19.015.719.0
2018-May-23 04:00N 33°36' E 130°18'197 9.4 310 / 61005.110.8 21.0 20.0
2018-May-22 07:00N 32°30' E 126°36'4314.3 120 / 181009.9 5.4 19.015.719.0
2018-May-22 04:00N 32°06' E 125°54'2110.6 110 / 191011.9 5.4 19.015.720.0
2018-May-22 02:00N 32°00' E 125°30'4210.6 100 / 121007.9 5.4 23.019.920.0
2018-May-21 22:00N 31°48' E 124°42'12913.0 110 / 241013.110.8 16.7 18.3
2018-May-21 12:05N 31°06' E 122°19'313.8
2018-May-21 11:53N 31°07' E 122°16'613.3
2018-May-21 11:28N 31°10' E 122°11'613.2
2018-May-21 11:00N 31°14' E 122°05'813.3
2018-May-21 10:23N 31°15' E 121°56'23 1.8
2018-May-20 21:00N 31°24' E 121°30'15 5.7 070 / 161013.1 2.2 17.5 23.8
2018-May-20 18:25N 31°18' E 121°46'612.1
2018-May-20 17:55N 31°16' E 121°53'512.8
2018-May-20 17:30N 31°15' E 121°59'714.5
2018-May-20 17:00N 31°13' E 122°07'510.1
2018-May-20 16:29N 31°10' E 122°12'612.4
2018-May-20 16:00N 31°07' E 122°18'24215.1
2018-May-20 00:00N 31°30' E 127°00'3617.9 080 / 221007.9 5.4 23.019.923.0
2018-May-19 22:00N 31°30' E 127°42'155 7.7 090 / 191012.110.8 19.9 20.4
2018-May-19 02:00N 32°30' E 130°30'0 0.0 350 / 201011.110.8 19.5 22.4
2018-May-19 01:00N 32°30' E 130°30'42611.6 010 / 251011.0 5.4 23.014.622.0
2018-May-17 12:23N 31°06' E 122°19'614.7
2018-May-17 12:00N 31°09' E 122°13'612.2
2018-May-17 11:30N 31°13' E 122°08'510.7
2018-May-17 11:00N 31°14' E 122°02'612.1
2018-May-17 10:30N 31°16' E 121°55'612.5
2018-May-17 10:00N 31°18' E 121°48'16 3.3
2018-May-17 05:00N 31°24' E 121°30'0 0.0 1003.1 2.2 34.7 24.7
2018-May-17 02:00N 31°24' E 121°30'1 0.3 320 / 131004.1 2.2
2018-May-16 22:38N 31°25' E 121°30'1 5.9
2018-May-16 22:26N 31°25' E 121°32'1311.2
2018-May-16 21:15N 31°19' E 121°45'7 8.1
2018-May-16 20:25N 31°16' E 121°53'4 9.3
2018-May-16 19:59N 31°15' E 121°57'4 9.2
2018-May-16 19:30N 31°14' E 122°02'610.7
2018-May-16 18:57N 31°12' E 122°09'713.0
2018-May-16 18:26N 31°08' E 122°15'7 9.0
2018-May-16 17:41N 31°07' E 122°23'511.4
2018-May-16 17:15N 31°07' E 122°28'3814.5
2018-May-16 14:39N 31°12' E 123°12'514.5
2018-May-16 14:17N 31°13' E 123°18'414.1
2018-May-16 14:00N 31°15' E 123°22'  

Dump ship's entire track history